Time,TemperatureF,DewpointF,PressureIn,WindDirection,WindDirectionDegrees,WindSpeedMPH,WindSpeedGustMPH,Humidity,HourlyPrecipIn,Conditions,Clouds,dailyrainin,SoftwareType,DateUTC
2013-02-21 00:01:00,36.1,14.7,30.15,NE,45,4.0,9.0,41,0.00,,,0.00,meteohub,2013-02-21 05:01:00,
2013-02-21 00:04:00,36.1,14.7,30.14,NE,45,4.0,9.0,41,0.00,,,0.00,meteohub,2013-02-21 05:04:00,
2013-02-21 00:07:00,36.1,14.7,30.14,NE,45,4.0,8.0,41,0.00,,,0.00,meteohub,2013-02-21 05:07:00,
2013-02-21 00:10:00,36.0,15.1,30.14,North,0,7.0,8.0,42,0.00,,,0.00,meteohub,2013-02-21 05:10:00,
2013-02-21 00:16:00,36.0,14.5,30.13,NW,315,8.0,8.0,41,0.00,,,0.00,meteohub,2013-02-21 05:16:00,
2013-02-21 00:22:00,36.0,14.5,30.14,North,0,2.0,8.0,41,0.00,,,0.00,meteohub,2013-02-21 05:22:00,
2013-02-21 00:27:00,35.8,14.9,30.14,North,0,3.0,8.0,42,0.00,,,0.00,meteohub,2013-02-21 05:27:00,
2013-02-21 00:32:00,35.6,13.6,30.14,SW,225,5.0,8.0,40,0.00,,,0.00,meteohub,2013-02-21 05:32:00,
2013-02-21 00:37:00,36.0,14.5,30.15,West,270,2.0,6.0,41,0.00,,,0.00,meteohub,2013-02-21 05:37:00,
2013-02-21 00:42:00,35.8,14.9,30.14,West,270,2.0,6.0,42,0.00,,,0.00,meteohub,2013-02-21 05:42:00,
2013-02-21 00:47:00,35.8,14.4,30.14,NW,315,3.0,5.0,41,0.00,,,0.00,meteohub,2013-02-21 05:47:00,
2013-02-21 00:52:00,35.2,14.4,30.14,North,0,2.0,6.0,42,0.00,,,0.00,meteohub,2013-02-21 05:52:00,
2013-02-21 00:57:00,35.4,16.2,30.14,NE,45,1.0,6.0,45,0.00,,,0.00,meteohub,2013-02-21 05:57:00,
2013-02-21 01:04:00,34.9,15.6,30.14,NW,315,2.0,6.0,45,0.00,,,0.00,meteohub,2013-02-21 06:04:00,
2013-02-21 01:10:00,34.3,16.7,30.14,North,0,2.0,2.0,48,0.00,,,0.00,meteohub,2013-02-21 06:10:00,
2013-02-21 01:16:00,34.2,16.5,30.14,SW,225,2.0,2.0,48,0.00,,,0.00,meteohub,2013-02-21 06:16:00,
2013-02-21 01:22:00,34.0,16.9,30.14,North,0,3.0,3.0,49,0.00,,,0.00,meteohub,2013-02-21 06:22:00,
2013-02-21 01:27:00,33.3,17.1,30.15,North,0,2.0,3.0,51,0.00,,,0.00,meteohub,2013-02-21 06:27:00,
2013-02-21 01:32:00,32.7,17.1,30.16,North,0,1.0,3.0,52,0.00,,,0.00,meteohub,2013-02-21 06:32:00,
2013-02-21 01:37:00,32.0,18.1,30.14,North,0,2.0,3.0,56,0.00,,,0.00,meteohub,2013-02-21 06:37:00,
2013-02-21 01:42:00,31.5,17.6,30.14,North,0,2.0,3.0,56,0.00,,,0.00,meteohub,2013-02-21 06:42:00,
2013-02-21 01:47:00,31.3,17.1,30.14,NE,45,3.0,3.0,55,0.00,,,0.00,meteohub,2013-02-21 06:47:00,
2013-02-21 01:52:00,31.8,18.0,30.14,NE,45,1.0,4.0,56,0.00,,,0.00,meteohub,2013-02-21 06:52:00,
2013-02-21 01:57:00,31.8,17.4,30.13,North,0,3.0,4.0,55,0.00,,,0.00,meteohub,2013-02-21 06:57:00,
2013-02-21 02:02:00,31.8,18.0,30.13,North,0,2.0,4.0,56,0.00,,,0.00,meteohub,2013-02-21 07:02:00,
2013-02-21 02:07:00,32.0,18.1,30.13,North,0,1.0,4.0,56,0.00,,,0.00,meteohub,2013-02-21 07:07:00,
2013-02-21 02:12:00,31.8,18.7,30.14,North,0,2.0,4.0,58,0.00,,,0.00,meteohub,2013-02-21 07:12:00,
2013-02-21 02:17:00,31.8,18.0,30.14,West,270,2.0,2.0,56,0.00,,,0.00,meteohub,2013-02-21 07:17:00,
2013-02-21 02:22:00,31.8,18.0,30.14,West,270,2.0,2.0,56,0.00,,,0.00,meteohub,2013-02-21 07:22:00,
2013-02-21 02:27:00,31.3,18.7,30.16,West,270,2.0,2.0,59,0.00,,,0.00,meteohub,2013-02-21 07:27:00,
2013-02-21 02:32:00,30.7,18.5,30.15,NW,315,2.0,2.0,60,0.00,,,0.00,meteohub,2013-02-21 07:32:00,
2013-02-21 02:37:00,30.2,18.0,30.16,North,-999,-999.0,3.0,60,0.00,,,0.00,meteohub,2013-02-21 07:37:00,
2013-02-21 02:42:00,29.7,17.4,30.15,West,270,1.0,3.0,60,0.00,,,0.00,meteohub,2013-02-21 07:42:00,
2013-02-21 02:47:00,29.8,18.0,30.15,West,270,1.0,3.0,61,0.00,,,0.00,meteohub,2013-02-21 07:47:00,
2013-02-21 02:52:00,29.5,18.5,30.15,West,270,1.0,2.0,63,0.00,,,0.00,meteohub,2013-02-21 07:52:00,
2013-02-21 02:57:00,29.1,19.2,30.16,West,270,2.0,2.0,66,0.00,,,0.00,meteohub,2013-02-21 07:57:00,
2013-02-21 03:02:00,28.8,18.5,30.16,West,270,2.0,2.0,65,0.00,,,0.00,meteohub,2013-02-21 08:02:00,
2013-02-21 03:07:00,28.8,18.5,30.16,West,270,2.0,2.0,65,0.00,,,0.00,meteohub,2013-02-21 08:07:00,
2013-02-21 03:12:00,27.9,18.0,30.17,West,270,2.0,2.0,66,0.00,,,0.00,meteohub,2013-02-21 08:12:00,
2013-02-21 03:17:00,27.5,18.0,30.17,West,270,1.0,2.0,67,0.00,,,0.00,meteohub,2013-02-21 08:17:00,
2013-02-21 03:22:00,27.0,17.8,30.17,West,270,2.0,2.0,68,0.00,,,0.00,meteohub,2013-02-21 08:22:00,
2013-02-21 03:27:00,26.8,17.6,30.17,West,270,1.0,2.0,68,0.00,,,0.00,meteohub,2013-02-21 08:27:00,
2013-02-21 03:32:00,26.6,17.8,30.17,West,270,2.0,2.0,69,0.00,,,0.00,meteohub,2013-02-21 08:32:00,
2013-02-21 03:37:00,26.2,17.8,30.17,West,270,1.0,2.0,70,0.00,,,0.00,meteohub,2013-02-21 08:37:00,
2013-02-21 03:42:00,26.1,18.3,30.17,West,270,2.0,2.0,72,0.00,,,0.00,meteohub,2013-02-21 08:42:00,
2013-02-21 03:47:00,25.7,18.0,30.18,West,270,0.0,2.0,72,0.00,,,0.00,meteohub,2013-02-21 08:47:00,
2013-02-21 03:52:00,25.3,17.6,30.17,West,270,2.0,2.0,72,0.00,,,0.00,meteohub,2013-02-21 08:52:00,
2013-02-21 03:57:00,25.2,17.4,30.17,West,270,1.0,2.0,72,0.00,,,0.00,meteohub,2013-02-21 08:57:00,
2013-02-21 04:05:00,25.0,17.2,30.17,West,270,0.0,2.0,72,0.00,,,0.00,meteohub,2013-02-21 09:05:00,
2013-02-21 04:11:00,24.6,17.2,30.17,West,270,1.0,1.0,73,0.00,,,0.00,meteohub,2013-02-21 09:11:00,
2013-02-21 04:17:00,24.3,17.2,30.17,West,270,2.0,2.0,74,0.00,,,0.00,meteohub,2013-02-21 09:17:00,
2013-02-21 04:22:00,24.3,17.2,30.17,West,270,1.0,2.0,74,0.00,,,0.00,meteohub,2013-02-21 09:22:00,
2013-02-21 04:27:00,24.1,17.2,30.18,West,270,1.0,2.0,75,0.00,,,0.00,meteohub,2013-02-21 09:27:00,
2013-02-21 04:32:00,23.9,17.4,30.18,West,270,2.0,2.0,76,0.00,,,0.00,meteohub,2013-02-21 09:32:00,
2013-02-21 04:37:00,23.5,17.1,30.17,West,270,2.0,2.0,76,0.00,,,0.00,meteohub,2013-02-21 09:37:00,
2013-02-21 04:42:00,23.4,17.2,30.18,West,270,1.0,2.0,77,0.00,,,0.00,meteohub,2013-02-21 09:42:00,
2013-02-21 04:47:00,23.2,17.1,30.18,West,270,2.0,2.0,77,0.00,,,0.00,meteohub,2013-02-21 09:47:00,
2013-02-21 04:52:00,23.2,17.4,30.19,West,270,2.0,2.0,78,0.00,,,0.00,meteohub,2013-02-21 09:52:00,
2013-02-21 04:57:00,23.2,17.6,30.19,West,270,1.0,2.0,79,0.00,,,0.00,meteohub,2013-02-21 09:57:00,
2013-02-21 05:02:00,22.8,17.2,30.19,West,270,2.0,2.0,79,0.00,,,0.00,meteohub,2013-02-21 10:02:00,
2013-02-21 05:07:00,22.5,16.7,30.19,West,270,1.0,2.0,78,0.00,,,0.00,meteohub,2013-02-21 10:07:00,
2013-02-21 05:12:00,22.5,16.9,30.19,West,270,2.0,2.0,79,0.00,,,0.00,meteohub,2013-02-21 10:12:00,
2013-02-21 05:17:00,22.5,16.9,30.19,West,270,1.0,2.0,79,0.00,,,0.00,meteohub,2013-02-21 10:17:00,
2013-02-21 05:22:00,22.5,17.2,30.18,West,270,1.0,2.0,80,0.00,,,0.00,meteohub,2013-02-21 10:22:00,
2013-02-21 05:29:00,22.1,16.9,30.19,West,270,1.0,2.0,80,0.00,,,0.00,meteohub,2013-02-21 10:29:00,
2013-02-21 05:35:00,22.1,17.2,30.19,West,270,2.0,2.0,81,0.00,,,0.00,meteohub,2013-02-21 10:35:00,
2013-02-21 05:41:00,22.5,17.6,30.19,West,270,1.0,2.0,81,0.00,,,0.00,meteohub,2013-02-21 10:41:00,
2013-02-21 05:47:00,22.3,17.4,30.20,West,270,1.0,2.0,81,0.00,,,0.00,meteohub,2013-02-21 10:47:00,
2013-02-21 05:52:00,21.9,17.2,30.20,West,270,2.0,2.0,82,0.00,,,0.00,meteohub,2013-02-21 10:52:00,
2013-02-21 05:57:00,21.7,17.1,30.20,West,270,1.0,2.0,82,0.00,,,0.00,meteohub,2013-02-21 10:57:00,
2013-02-21 06:02:00,21.6,16.7,30.21,West,270,0.0,2.0,81,0.00,,,0.00,meteohub,2013-02-21 11:02:00,
2013-02-21 06:07:00,21.4,16.5,30.21,West,270,1.0,2.0,81,0.00,,,0.00,meteohub,2013-02-21 11:07:00,
2013-02-21 06:12:00,21.4,16.7,30.20,West,270,1.0,2.0,82,0.00,,,0.00,meteohub,2013-02-21 11:12:00,
2013-02-21 06:17:00,21.4,16.7,30.21,West,270,0.0,2.0,82,0.00,,,0.00,meteohub,2013-02-21 11:17:00,
2013-02-21 06:22:00,21.2,16.5,30.21,West,270,2.0,2.0,82,0.00,,,0.00,meteohub,2013-02-21 11:22:00,
2013-02-21 06:27:00,21.2,16.9,30.21,West,270,2.0,2.0,83,0.00,,,0.00,meteohub,2013-02-21 11:27:00,
2013-02-21 06:32:00,21.4,17.1,30.22,West,270,0.0,2.0,83,0.00,,,0.00,meteohub,2013-02-21 11:32:00,
2013-02-21 06:37:00,21.4,17.1,30.22,West,270,1.0,2.0,83,0.00,,,0.00,meteohub,2013-02-21 11:37:00,
2013-02-21 06:42:00,21.0,16.9,30.23,West,270,2.0,2.0,84,0.00,,,0.00,meteohub,2013-02-21 11:42:00,
2013-02-21 06:47:00,20.8,16.7,30.23,West,270,2.0,2.0,84,0.00,,,0.00,meteohub,2013-02-21 11:47:00,
2013-02-21 06:52:00,21.0,16.9,30.23,West,270,0.0,2.0,84,0.00,,,0.00,meteohub,2013-02-21 11:52:00,
2013-02-21 06:57:00,20.8,16.7,30.23,West,270,0.0,2.0,84,0.00,,,0.00,meteohub,2013-02-21 11:57:00,
2013-02-21 07:02:00,20.7,16.5,30.23,West,270,0.0,2.0,84,0.00,,,0.00,meteohub,2013-02-21 12:02:00,
2013-02-21 07:07:00,20.7,16.5,30.23,West,270,0.0,1.0,84,0.00,,,0.00,meteohub,2013-02-21 12:07:00,
2013-02-21 07:12:00,20.5,16.3,30.23,West,270,0.0,0.0,84,0.00,,,0.00,meteohub,2013-02-21 12:12:00,
2013-02-21 07:17:00,20.5,16.3,30.23,West,270,0.0,0.0,84,0.00,,,0.00,meteohub,2013-02-21 12:17:00,
2013-02-21 07:22:00,20.3,16.2,30.23,West,270,2.0,0.0,84,0.00,,,0.00,meteohub,2013-02-21 12:22:00,
2013-02-21 07:27:00,20.8,17.1,30.23,West,270,1.0,2.0,85,0.00,,,0.00,meteohub,2013-02-21 12:27:00,
2013-02-21 07:32:00,21.2,17.4,30.23,West,270,1.0,2.0,85,0.00,,,0.00,meteohub,2013-02-21 12:32:00,
2013-02-21 07:37:00,21.4,17.6,30.23,West,270,1.0,2.0,85,0.00,,,0.00,meteohub,2013-02-21 12:37:00,
2013-02-21 07:42:00,21.6,17.8,30.24,West,270,2.0,2.0,85,0.00,,,0.00,meteohub,2013-02-21 12:42:00,
2013-02-21 07:48:00,22.1,18.5,30.23,West,270,0.0,2.0,86,0.00,,,0.00,meteohub,2013-02-21 12:48:00,
2013-02-21 07:54:00,22.5,18.9,30.23,West,270,0.0,2.0,86,0.00,,,0.00,meteohub,2013-02-21 12:54:00,
2013-02-21 08:00:00,23.0,19.4,30.24,West,270,0.0,1.0,86,0.00,,,0.00,meteohub,2013-02-21 13:00:00,
2013-02-21 08:06:00,23.5,19.9,30.24,West,270,0.0,0.0,86,0.00,,,0.00,meteohub,2013-02-21 13:06:00,
2013-02-21 08:12:00,24.1,20.5,30.24,West,270,0.0,0.0,86,0.00,,,0.00,meteohub,2013-02-21 13:12:00,
2013-02-21 08:17:00,24.8,21.2,30.23,West,270,0.0,0.0,86,0.00,,,0.00,meteohub,2013-02-21 13:17:00,
2013-02-21 08:22:00,25.3,21.7,30.24,West,270,0.0,0.0,86,0.00,,,0.00,meteohub,2013-02-21 13:22:00,
2013-02-21 08:27:00,25.9,21.9,30.24,West,270,0.0,0.0,85,0.00,,,0.00,meteohub,2013-02-21 13:27:00,
2013-02-21 08:32:00,26.4,22.5,30.23,West,270,1.0,0.0,85,0.00,,,0.00,meteohub,2013-02-21 13:32:00,
2013-02-21 08:37:00,27.5,23.4,30.24,West,270,0.0,2.0,84,0.00,,,0.00,meteohub,2013-02-21 13:37:00,
2013-02-21 08:42:00,28.8,24.6,30.24,West,270,1.0,2.0,84,0.00,,,0.00,meteohub,2013-02-21 13:42:00,
2013-02-21 08:47:00,30.0,25.0,30.23,NE,45,2.0,2.0,81,0.00,,,0.00,meteohub,2013-02-21 13:47:00,
2013-02-21 08:52:00,31.5,25.3,30.23,NE,45,1.0,3.0,78,0.00,,,0.00,meteohub,2013-02-21 13:52:00,
2013-02-21 08:57:00,32.5,24.8,30.24,South,180,2.0,3.0,73,0.00,,,0.00,meteohub,2013-02-21 13:57:00,
2013-02-21 09:02:00,33.1,24.1,30.23,North,0,3.0,3.0,69,0.00,,,0.00,meteohub,2013-02-21 14:02:00,
2013-02-21 09:07:00,33.6,23.9,30.24,North,0,2.0,4.0,67,0.00,,,0.00,meteohub,2013-02-21 14:07:00,
2013-02-21 09:12:00,34.5,24.3,30.23,NE,45,2.0,4.0,66,0.00,,,0.00,meteohub,2013-02-21 14:12:00,
2013-02-21 09:17:00,35.4,23.7,30.24,North,0,4.0,4.0,62,0.00,,,0.00,meteohub,2013-02-21 14:17:00,
2013-02-21 09:22:00,36.0,22.6,30.24,North,0,5.0,5.0,58,0.00,,,0.00,meteohub,2013-02-21 14:22:00,
2013-02-21 09:27:00,36.1,21.9,30.23,West,270,2.0,5.0,56,0.00,,,0.00,meteohub,2013-02-21 14:27:00,
2013-02-21 09:32:00,36.7,22.1,30.23,NE,45,2.0,5.0,55,0.00,,,0.00,meteohub,2013-02-21 14:32:00,
2013-02-21 09:37:00,37.2,22.5,30.23,North,0,2.0,5.0,55,0.00,,,0.00,meteohub,2013-02-21 14:37:00,
2013-02-21 09:42:00,37.8,21.7,30.23,SE,135,2.0,4.0,52,0.00,,,0.00,meteohub,2013-02-21 14:42:00,
2013-02-21 09:47:00,38.7,22.6,30.23,East,90,5.0,5.0,52,0.00,,,0.00,meteohub,2013-02-21 14:47:00,
2013-02-21 09:52:00,38.7,20.7,30.22,East,90,2.0,6.0,48,0.00,,,0.00,meteohub,2013-02-21 14:52:00,
2013-02-21 09:57:00,39.9,21.7,30.23,West,270,4.0,6.0,48,0.00,,,0.00,meteohub,2013-02-21 14:57:00,
2013-02-21 10:02:00,40.6,21.0,30.22,East,90,2.0,6.0,45,0.00,,,0.00,meteohub,2013-02-21 15:02:00,
2013-02-21 10:07:00,41.7,19.8,30.22,North,0,5.0,5.0,41,0.00,,,0.00,meteohub,2013-02-21 15:07:00,
2013-02-21 10:12:00,42.1,19.6,30.22,NE,45,2.0,6.0,40,0.00,,,0.00,meteohub,2013-02-21 15:12:00,
2013-02-21 10:17:00,42.6,19.4,30.22,East,90,3.0,6.0,39,0.00,,,0.00,meteohub,2013-02-21 15:17:00,
2013-02-21 10:22:00,42.8,19.6,30.22,North,0,2.0,6.0,39,0.00,,,0.00,meteohub,2013-02-21 15:22:00,
2013-02-21 10:27:00,43.5,18.3,30.21,West,270,2.0,6.0,36,0.00,,,0.00,meteohub,2013-02-21 15:27:00,
2013-02-21 10:32:00,44.1,19.4,30.22,North,0,4.0,8.0,37,0.00,,,0.00,meteohub,2013-02-21 15:32:00,
2013-02-21 10:37:00,44.4,17.8,30.21,South,180,2.0,8.0,34,0.00,,,0.00,meteohub,2013-02-21 15:37:00,
2013-02-21 10:42:00,44.4,15.6,30.21,NW,315,6.0,8.0,31,0.00,,,0.00,meteohub,2013-02-21 15:42:00,
2013-02-21 10:47:00,44.6,15.8,30.22,North,0,7.0,8.0,31,0.00,,,0.00,meteohub,2013-02-21 15:47:00,
2013-02-21 10:52:00,45.0,14.5,30.22,NE,45,7.0,8.0,29,0.00,,,0.00,meteohub,2013-02-21 15:52:00,
2013-02-21 10:57:00,45.5,15.8,30.22,NE,45,5.0,8.0,30,0.00,,,0.00,meteohub,2013-02-21 15:57:00,
2013-02-21 11:02:00,45.5,14.4,30.22,North,0,4.0,8.0,28,0.00,,,0.00,meteohub,2013-02-21 16:02:00,
2013-02-21 11:07:00,46.0,16.3,30.22,SW,225,2.0,8.0,30,0.00,,,0.00,meteohub,2013-02-21 16:07:00,
2013-02-21 11:12:00,46.2,13.3,30.22,North,0,4.0,8.0,26,0.00,,,0.00,meteohub,2013-02-21 16:12:00,
2013-02-21 11:17:00,46.0,13.1,30.21,NW,315,7.0,7.0,26,0.00,,,0.00,meteohub,2013-02-21 16:17:00,
2013-02-21 11:22:00,46.6,13.5,30.21,NW,315,7.0,7.0,26,0.00,,,0.00,meteohub,2013-02-21 16:22:00,
2013-02-21 11:27:00,47.1,14.0,30.21,SW,225,2.0,7.0,26,0.00,,,0.00,meteohub,2013-02-21 16:27:00,
2013-02-21 11:32:00,47.7,13.5,30.21,NW,315,4.0,7.0,25,0.00,,,0.00,meteohub,2013-02-21 16:32:00,
2013-02-21 11:37:00,47.7,12.6,30.21,SE,135,3.0,11.0,24,0.00,,,0.00,meteohub,2013-02-21 16:37:00,
2013-02-21 11:42:00,48.4,15.1,30.21,SW,225,4.0,15.0,26,0.00,,,0.00,meteohub,2013-02-21 16:42:00,
2013-02-21 11:47:00,48.9,12.7,30.20,SW,225,4.0,15.0,23,0.00,,,0.00,meteohub,2013-02-21 16:47:00,
2013-02-21 11:52:00,49.3,14.0,30.20,North,0,4.0,7.0,24,0.00,,,0.00,meteohub,2013-02-21 16:52:00,
2013-02-21 11:57:00,49.3,14.0,30.20,South,180,4.0,7.0,24,0.00,,,0.00,meteohub,2013-02-21 16:57:00,
2013-02-21 12:02:00,49.8,13.5,30.20,North,0,6.0,7.0,23,0.00,,,0.00,meteohub,2013-02-21 17:02:00,
2013-02-21 12:07:00,49.6,12.4,30.20,West,270,4.0,6.0,22,0.00,,,0.00,meteohub,2013-02-21 17:07:00,
2013-02-21 12:12:00,50.0,11.7,30.20,SW,225,3.0,6.0,21,0.00,,,0.00,meteohub,2013-02-21 17:12:00,
2013-02-21 12:17:00,50.2,11.7,30.19,North,0,2.0,6.0,21,0.00,,,0.00,meteohub,2013-02-21 17:17:00,
2013-02-21 12:22:00,50.5,12.0,30.19,North,0,8.0,8.0,21,0.00,,,0.00,meteohub,2013-02-21 17:22:00,
2013-02-21 12:27:00,50.9,11.3,30.19,NE,45,11.0,11.0,20,0.00,,,0.00,meteohub,2013-02-21 17:27:00,
2013-02-21 12:32:00,50.4,10.8,30.19,North,0,5.0,11.0,20,0.00,,,0.00,meteohub,2013-02-21 17:32:00,
2013-02-21 12:37:00,50.7,11.1,30.19,West,270,4.0,11.0,20,0.00,,,0.00,meteohub,2013-02-21 17:37:00,
2013-02-21 12:42:00,51.4,9.3,30.18,North,0,5.0,11.0,18,0.00,,,0.00,meteohub,2013-02-21 17:42:00,
2013-02-21 12:47:00,51.6,10.8,30.17,North,0,8.0,8.0,19,0.00,,,0.00,meteohub,2013-02-21 17:47:00,
2013-02-21 12:52:00,51.3,9.1,30.17,NW,315,5.0,15.0,18,0.00,,,0.00,meteohub,2013-02-21 17:52:00,
2013-02-21 12:57:00,51.3,7.9,30.17,NE,45,8.0,15.0,17,0.00,,,0.00,meteohub,2013-02-21 17:57:00,
2013-02-21 13:02:00,51.3,6.6,30.17,SW,225,12.0,15.0,16,0.00,,,0.00,meteohub,2013-02-21 18:02:00,
2013-02-21 13:07:00,51.3,9.1,30.17,SW,225,6.0,12.0,18,0.00,,,0.00,meteohub,2013-02-21 18:07:00,
2013-02-21 13:12:00,51.3,7.9,30.17,NW,315,8.0,12.0,17,0.00,,,0.00,meteohub,2013-02-21 18:12:00,
2013-02-21 13:17:00,51.8,8.4,30.16,North,0,2.0,12.0,17,0.00,,,0.00,meteohub,2013-02-21 18:17:00,
2013-02-21 13:22:00,52.5,10.2,30.16,West,270,7.0,8.0,18,0.00,,,0.00,meteohub,2013-02-21 18:22:00,
2013-02-21 13:27:00,52.9,9.3,30.16,NW,315,11.0,11.0,17,0.00,,,0.00,meteohub,2013-02-21 18:27:00,
2013-02-21 13:32:00,52.5,7.5,30.16,SE,135,5.0,11.0,16,0.00,,,0.00,meteohub,2013-02-21 18:32:00,
2013-02-21 13:37:00,52.5,7.5,30.16,NW,315,8.0,11.0,16,0.00,,,0.00,meteohub,2013-02-21 18:37:00,
2013-02-21 13:42:00,52.5,9.0,30.15,SW,225,5.0,11.0,17,0.00,,,0.00,meteohub,2013-02-21 18:42:00,
2013-02-21 13:47:00,53.1,8.1,30.15,SW,225,4.0,9.0,16,0.00,,,0.00,meteohub,2013-02-21 18:47:00,
2013-02-21 13:52:00,52.7,6.3,30.15,NW,315,8.0,12.0,15,0.00,,,0.00,meteohub,2013-02-21 18:52:00,
2013-02-21 13:57:00,52.7,6.3,30.14,ENE,68,4.0,12.0,15,0.00,,,0.00,meteohub,2013-02-21 18:57:00,
2013-02-21 14:02:00,52.5,6.3,30.14,West,270,4.0,12.0,15,0.00,,,0.00,meteohub,2013-02-21 19:02:00,
2013-02-21 14:07:00,52.5,6.3,30.13,North,0,9.0,9.0,15,0.00,,,0.00,meteohub,2013-02-21 19:07:00,
2013-02-21 14:12:00,52.9,9.3,30.13,North,0,4.0,9.0,17,0.00,,,0.00,meteohub,2013-02-21 19:12:00,
2013-02-21 14:17:00,53.4,8.2,30.13,North,0,4.0,9.0,16,0.00,,,0.00,meteohub,2013-02-21 19:17:00,
2013-02-21 14:22:00,53.6,8.4,30.13,NE,45,4.0,9.0,16,0.00,,,0.00,meteohub,2013-02-21 19:22:00,
2013-02-21 14:27:00,53.6,8.4,30.13,NW,315,5.0,8.0,16,0.00,,,0.00,meteohub,2013-02-21 19:27:00,
2013-02-21 14:32:00,53.4,9.7,30.13,NW,315,4.0,8.0,17,0.00,,,0.00,meteohub,2013-02-21 19:32:00,
2013-02-21 14:37:00,53.4,7.0,30.12,NW,315,5.0,10.0,15,0.00,,,0.00,meteohub,2013-02-21 19:37:00,
2013-02-21 14:42:00,53.1,6.6,30.13,NE,45,4.0,10.0,15,0.00,,,0.00,meteohub,2013-02-21 19:42:00,
2013-02-21 14:47:00,53.2,8.2,30.13,North,0,7.0,10.0,16,0.00,,,0.00,meteohub,2013-02-21 19:47:00,
2013-02-21 14:52:00,52.9,6.4,30.13,NE,45,4.0,7.0,15,0.00,,,0.00,meteohub,2013-02-21 19:52:00,
2013-02-21 14:57:00,53.1,6.6,30.13,North,0,4.0,7.0,15,0.00,,,0.00,meteohub,2013-02-21 19:57:00,
2013-02-21 15:02:00,53.1,8.1,30.12,North,0,4.0,7.0,16,0.00,,,0.00,meteohub,2013-02-21 20:02:00,
2013-02-21 15:09:00,53.1,6.6,30.13,North,0,2.0,7.0,15,0.00,,,0.00,meteohub,2013-02-21 20:09:00,
2013-02-21 15:15:00,52.9,6.4,30.13,NNW,338,5.0,6.0,15,0.00,,,0.00,meteohub,2013-02-21 20:15:00,
2013-02-21 15:21:00,52.7,6.3,30.13,SW,225,3.0,7.0,15,0.00,,,0.00,meteohub,2013-02-21 20:21:00,
2013-02-21 15:27:00,53.1,9.3,30.12,NW,315,5.0,7.0,17,0.00,,,0.00,meteohub,2013-02-21 20:27:00,
2013-02-21 15:32:00,52.9,6.4,30.13,North,0,4.0,7.0,15,0.00,,,0.00,meteohub,2013-02-21 20:32:00,
2013-02-21 15:37:00,52.9,5.0,30.13,South,180,3.0,7.0,14,0.00,,,0.00,meteohub,2013-02-21 20:37:00,
2013-02-21 15:42:00,53.1,6.6,30.13,NW,315,2.0,7.0,15,0.00,,,0.00,meteohub,2013-02-21 20:42:00,
2013-02-21 15:47:00,53.1,6.6,30.13,NW,315,2.0,5.0,15,0.00,,,0.00,meteohub,2013-02-21 20:47:00,
2013-02-21 15:52:00,53.1,8.1,30.13,North,0,6.0,6.0,16,0.00,,,0.00,meteohub,2013-02-21 20:52:00,
2013-02-21 15:57:00,52.9,6.4,30.13,North,0,4.0,6.0,15,0.00,,,0.00,meteohub,2013-02-21 20:57:00,
2013-02-21 16:02:00,52.9,7.9,30.13,SW,225,1.0,6.0,16,0.00,,,0.00,meteohub,2013-02-21 21:02:00,
2013-02-21 16:07:00,53.1,8.1,30.13,NW,315,4.0,6.0,16,0.00,,,0.00,meteohub,2013-02-21 21:07:00,
2013-02-21 16:12:00,53.1,8.1,30.13,NW,315,3.0,5.0,16,0.00,,,0.00,meteohub,2013-02-21 21:12:00,
2013-02-21 16:17:00,52.5,7.5,30.13,North,0,6.0,7.0,16,0.00,,,0.00,meteohub,2013-02-21 21:17:00,
2013-02-21 16:22:00,52.0,8.4,30.13,NE,45,3.0,7.0,17,0.00,,,0.00,meteohub,2013-02-21 21:22:00,
2013-02-21 16:27:00,51.6,9.5,30.13,North,0,3.0,7.0,18,0.00,,,0.00,meteohub,2013-02-21 21:27:00,
2013-02-21 16:32:00,51.4,8.1,30.14,North,0,4.0,6.0,17,0.00,,,0.00,meteohub,2013-02-21 21:32:00,
2013-02-21 16:37:00,51.3,9.1,30.14,West,270,2.0,4.0,18,0.00,,,0.00,meteohub,2013-02-21 21:37:00,
2013-02-21 16:42:00,51.1,10.2,30.15,North,0,3.0,5.0,19,0.00,,,0.00,meteohub,2013-02-21 21:42:00,
2013-02-21 16:47:00,50.9,9.0,30.15,North,0,2.0,5.0,18,0.00,,,0.00,meteohub,2013-02-21 21:47:00,
2013-02-21 16:52:00,50.7,9.9,30.15,North,0,4.0,5.0,19,0.00,,,0.00,meteohub,2013-02-21 21:52:00,
2013-02-21 16:57:00,50.4,9.7,30.15,NW,315,4.0,5.0,19,0.00,,,0.00,meteohub,2013-02-21 21:57:00,
2013-02-21 17:02:00,50.2,10.6,30.14,North,0,3.0,5.0,20,0.00,,,0.00,meteohub,2013-02-21 22:02:00,
2013-02-21 17:07:00,49.8,11.5,30.15,WSW,248,2.0,5.0,21,0.00,,,0.00,meteohub,2013-02-21 22:07:00,
2013-02-21 17:12:00,49.6,11.3,30.15,East,90,1.0,5.0,21,0.00,,,0.00,meteohub,2013-02-21 22:12:00,
2013-02-21 17:17:00,49.3,13.1,30.16,West,270,2.0,3.0,23,0.00,,,0.00,meteohub,2013-02-21 22:17:00,
2013-02-21 17:22:00,48.9,12.7,30.17,West,270,1.0,3.0,23,0.00,,,0.00,meteohub,2013-02-21 22:22:00,
2013-02-21 17:27:00,48.6,13.5,30.17,North,0,1.0,3.0,24,0.00,,,0.00,meteohub,2013-02-21 22:27:00,
2013-02-21 17:32:00,48.2,14.0,30.17,North,0,1.0,2.0,25,0.00,,,0.00,meteohub,2013-02-21 22:32:00,
2013-02-21 17:37:00,47.3,18.1,30.17,North,0,1.0,2.0,31,0.00,,,0.00,meteohub,2013-02-21 22:37:00,
2013-02-21 17:42:00,46.6,19.0,30.17,North,0,2.0,2.0,33,0.00,,,0.00,meteohub,2013-02-21 22:42:00,
2013-02-21 17:47:00,45.3,21.7,30.18,North,0,1.0,2.0,39,0.00,,,0.00,meteohub,2013-02-21 22:47:00,
2013-02-21 17:52:00,43.9,21.7,30.18,North,0,1.0,2.0,41,0.00,,,0.00,meteohub,2013-02-21 22:52:00,
2013-02-21 17:57:00,43.0,22.6,30.18,North,0,1.0,2.0,44,0.00,,,0.00,meteohub,2013-02-21 22:57:00,
2013-02-21 18:02:00,41.9,23.7,30.18,North,0,2.0,2.0,48,0.00,,,0.00,meteohub,2013-02-21 23:02:00,
2013-02-21 18:07:00,41.0,23.7,30.19,North,0,2.0,2.0,50,0.00,,,0.00,meteohub,2013-02-21 23:07:00,
2013-02-21 18:12:00,40.1,23.4,30.20,North,0,2.0,2.0,51,0.00,,,0.00,meteohub,2013-02-21 23:12:00,
2013-02-21 18:17:00,39.2,23.5,30.21,North,0,2.0,2.0,53,0.00,,,0.00,meteohub,2013-02-21 23:17:00,
2013-02-21 18:22:00,38.7,22.6,30.20,North,0,1.0,2.0,52,0.00,,,0.00,meteohub,2013-02-21 23:22:00,
2013-02-21 18:27:00,38.3,23.2,30.19,North,0,2.0,2.0,54,0.00,,,0.00,meteohub,2013-02-21 23:27:00,
2013-02-21 18:32:00,37.6,23.4,30.20,North,0,2.0,2.0,56,0.00,,,0.00,meteohub,2013-02-21 23:32:00,
2013-02-21 18:37:00,37.0,21.6,30.20,North,0,0.0,2.0,53,0.00,,,0.00,meteohub,2013-02-21 23:37:00,
2013-02-21 18:42:00,36.7,22.5,30.19,North,0,2.0,2.0,56,0.00,,,0.00,meteohub,2013-02-21 23:42:00,
2013-02-21 18:47:00,36.3,23.4,30.19,SW,225,2.0,2.0,59,0.00,,,0.00,meteohub,2013-02-21 23:47:00,
2013-02-21 18:52:00,36.0,23.0,30.19,SW,225,2.0,2.0,59,0.00,,,0.00,meteohub,2013-02-21 23:52:00,
2013-02-21 18:57:00,35.8,23.2,30.18,SW,225,1.0,2.0,60,0.00,,,0.00,meteohub,2013-02-21 23:57:00,
2013-02-21 19:02:00,35.6,22.6,30.18,SW,225,1.0,2.0,59,0.00,,,0.00,meteohub,2013-02-22 00:02:00,
2013-02-21 19:07:00,35.2,22.8,30.18,SW,225,2.0,2.0,60,0.00,,,0.00,meteohub,2013-02-22 00:07:00,
2013-02-21 19:12:00,35.4,23.7,30.19,SW,225,2.0,2.0,62,0.00,,,0.00,meteohub,2013-02-22 00:12:00,
2013-02-21 19:17:00,35.6,23.9,30.20,SW,225,2.0,2.0,62,0.00,,,0.00,meteohub,2013-02-22 00:17:00,
2013-02-21 19:22:00,35.6,25.0,30.21,SW,225,2.0,2.0,65,0.00,,,0.00,meteohub,2013-02-22 00:22:00,
2013-02-21 19:27:00,35.4,24.8,30.22,SW,225,2.0,2.0,65,0.00,,,0.00,meteohub,2013-02-22 00:27:00,
2013-02-21 19:32:00,35.4,24.4,30.22,SW,225,1.0,2.0,64,0.00,,,0.00,meteohub,2013-02-22 00:32:00,
2013-02-21 19:37:00,35.2,24.6,30.22,SW,225,2.0,2.0,65,0.00,,,0.00,meteohub,2013-02-22 00:37:00,
2013-02-21 19:42:00,34.9,23.9,30.23,SW,225,1.0,2.0,64,0.00,,,0.00,meteohub,2013-02-22 00:42:00,
2013-02-21 19:47:00,34.5,23.5,30.23,SW,225,1.0,2.0,64,0.00,,,0.00,meteohub,2013-02-22 00:47:00,
2013-02-21 19:52:00,34.9,24.3,30.23,SW,225,1.0,2.0,65,0.00,,,0.00,meteohub,2013-02-22 00:52:00,
2013-02-21 19:57:00,34.3,23.0,30.23,SW,225,1.0,2.0,63,0.00,,,0.00,meteohub,2013-02-22 00:57:00,
2013-02-21 20:02:00,34.3,23.0,30.23,SW,225,1.0,2.0,63,0.00,,,0.00,meteohub,2013-02-22 01:02:00,
2013-02-21 20:07:00,33.8,23.0,30.23,SW,225,2.0,2.0,64,0.00,,,0.00,meteohub,2013-02-22 01:07:00,
2013-02-21 20:12:00,34.0,23.9,30.23,SW,225,1.0,2.0,66,0.00,,,0.00,meteohub,2013-02-22 01:12:00,
2013-02-21 20:17:00,33.8,23.7,30.23,SW,225,2.0,2.0,66,0.00,,,0.00,meteohub,2013-02-22 01:17:00,
2013-02-21 20:22:00,33.4,23.4,30.23,SW,225,2.0,2.0,66,0.00,,,0.00,meteohub,2013-02-22 01:22:00,
2013-02-21 20:27:00,33.4,23.7,30.23,SW,225,2.0,2.0,67,0.00,,,0.00,meteohub,2013-02-22 01:27:00,
2013-02-21 20:32:00,33.6,24.3,30.24,SW,225,1.0,2.0,68,0.00,,,0.00,meteohub,2013-02-22 01:32:00,
2013-02-21 20:37:00,33.6,24.6,30.24,SW,225,2.0,2.0,69,0.00,,,0.00,meteohub,2013-02-22 01:37:00,
2013-02-21 20:42:00,33.6,24.3,30.25,SW,225,1.0,2.0,68,0.00,,,0.00,meteohub,2013-02-22 01:42:00,
2013-02-21 20:47:00,33.8,24.4,30.24,SW,225,0.0,2.0,68,0.00,,,0.00,meteohub,2013-02-22 01:47:00,
2013-02-21 20:52:00,33.8,24.8,30.23,SW,225,1.0,2.0,69,0.00,,,0.00,meteohub,2013-02-22 01:52:00,
2013-02-21 20:57:00,34.0,24.6,30.23,SW,225,2.0,2.0,68,0.00,,,0.00,meteohub,2013-02-22 01:57:00,
2013-02-21 21:02:00,34.2,24.6,30.23,SW,225,1.0,2.0,68,0.00,,,0.00,meteohub,2013-02-22 02:02:00,
2013-02-21 21:07:00,34.5,25.0,30.23,SW,225,1.0,2.0,68,0.00,,,0.00,meteohub,2013-02-22 02:07:00,
2013-02-21 21:12:00,34.5,25.0,30.23,SW,225,1.0,2.0,68,0.00,,,0.00,meteohub,2013-02-22 02:12:00,
2013-02-21 21:17:00,34.7,25.5,30.23,SW,225,2.0,2.0,69,0.00,,,0.00,meteohub,2013-02-22 02:17:00,
2013-02-21 21:22:00,34.7,25.5,30.23,SW,225,2.0,2.0,69,0.00,,,0.00,meteohub,2013-02-22 02:22:00,
2013-02-21 21:29:00,35.1,25.9,30.24,SW,225,2.0,2.0,69,0.00,,,0.00,meteohub,2013-02-22 02:29:00,
2013-02-21 21:35:00,35.4,26.2,30.24,NE,45,1.0,2.0,69,0.00,,,0.00,meteohub,2013-02-22 02:35:00,
2013-02-21 21:41:00,35.6,26.4,30.24,West,270,1.0,2.0,69,0.00,,,0.00,meteohub,2013-02-22 02:41:00,
2013-02-21 21:47:00,35.8,26.6,30.24,West,270,1.0,2.0,69,0.00,,,0.00,meteohub,2013-02-22 02:47:00,
2013-02-21 21:52:00,36.1,27.0,30.24,NE,45,2.0,2.0,69,0.00,,,0.00,meteohub,2013-02-22 02:52:00,
2013-02-21 21:57:00,37.0,27.5,30.24,SE,135,2.0,2.0,68,0.00,,,0.00,meteohub,2013-02-22 02:57:00,
2013-02-21 22:02:00,37.2,27.7,30.24,SE,135,2.0,7.0,68,0.00,,,0.00,meteohub,2013-02-22 03:02:00,
2013-02-21 22:07:00,37.2,27.7,30.24,SE,135,2.0,7.0,68,0.00,,,0.00,meteohub,2013-02-22 03:07:00,
2013-02-21 22:12:00,38.7,27.1,30.24,East,90,3.0,4.0,63,0.00,,,0.00,meteohub,2013-02-22 03:12:00,
2013-02-21 22:17:00,39.7,25.3,30.24,NW,315,4.0,4.0,56,0.00,,,0.00,meteohub,2013-02-22 03:17:00,
2013-02-21 22:22:00,40.8,23.5,30.25,NW,315,5.0,6.0,50,0.00,,,0.00,meteohub,2013-02-22 03:22:00,
2013-02-21 22:27:00,41.4,23.7,30.26,NE,45,2.0,6.0,49,0.00,,,0.00,meteohub,2013-02-22 03:27:00,
2013-02-21 22:32:00,41.5,22.8,30.27,North,0,5.0,6.0,47,0.00,,,0.00,meteohub,2013-02-22 03:32:00,
2013-02-21 22:37:00,41.5,23.4,30.27,SE,135,2.0,6.0,48,0.00,,,0.00,meteohub,2013-02-22 03:37:00,
2013-02-21 22:42:00,41.4,23.7,30.27,SE,135,2.0,5.0,49,0.00,,,0.00,meteohub,2013-02-22 03:42:00,
2013-02-21 22:47:00,41.0,22.3,30.27,NE,45,2.0,5.0,47,0.00,,,0.00,meteohub,2013-02-22 03:47:00,
2013-02-21 22:52:00,41.0,21.7,30.27,NW,315,3.0,3.0,46,0.00,,,0.00,meteohub,2013-02-22 03:52:00,
2013-02-21 22:57:00,41.2,22.5,30.29,SE,135,1.0,6.0,47,0.00,,,0.00,meteohub,2013-02-22 03:57:00,
2013-02-21 23:02:00,41.0,22.8,30.28,SE,135,1.0,6.0,48,0.00,,,0.00,meteohub,2013-02-22 04:02:00,
2013-02-21 23:07:00,41.0,22.8,30.28,SE,135,1.0,5.0,48,0.00,,,0.00,meteohub,2013-02-22 04:07:00,
2013-02-21 23:12:00,40.3,22.6,30.28,NE,45,2.0,2.0,49,0.00,,,0.00,meteohub,2013-02-22 04:12:00,
2013-02-21 23:17:00,39.9,22.8,30.28,NE,45,1.0,2.0,50,0.00,,,0.00,meteohub,2013-02-22 04:17:00,
2013-02-21 23:22:00,39.9,22.3,30.28,North,0,1.0,2.0,49,0.00,,,0.00,meteohub,2013-02-22 04:22:00,
2013-02-21 23:27:00,39.7,22.6,30.27,North,0,2.0,2.0,50,0.00,,,0.00,meteohub,2013-02-22 04:27:00,
2013-02-21 23:32:00,39.4,22.8,30.27,North,0,2.0,2.0,51,0.00,,,0.00,meteohub,2013-02-22 04:32:00,
2013-02-21 23:37:00,39.6,23.0,30.27,North,0,2.0,2.0,51,0.00,,,0.00,meteohub,2013-02-22 04:37:00,
2013-02-21 23:42:00,39.7,22.6,30.27,East,90,2.0,3.0,50,0.00,,,0.00,meteohub,2013-02-22 04:42:00,
2013-02-21 23:47:00,40.1,21.9,30.26,North,0,3.0,3.0,48,0.00,,,0.00,meteohub,2013-02-22 04:47:00,
2013-02-21 23:52:00,40.3,22.1,30.26,NE,45,2.0,4.0,48,0.00,,,0.00,meteohub,2013-02-22 04:52:00,
2013-02-21 23:57:00,40.3,22.6,30.26,NE,45,2.0,4.0,49,0.00,,,0.00,meteohub,2013-02-22 04:57:00,